Terminal Aerodrome Forecast
Issued by NWS

Home | Current Version | Previous Version | Text Only | Print | Product List | Glossary Off
Versions: 1 2 3 4 5 6 7 8 9 10 11 12 13 14 15 16 17 18 19 20 21 22 23 24 25 26 27 28 29 30 31 32

000
FTUS43 KLOT 271141
TAFORD
TAF
KORD 271141Z 2712/2818 01012KT 6SM -SHSN OVC035
      TEMPO 2712/2713 5SM -SHSN OVC025
     FM271400 01014G20KT P6SM SCT040
     FM271800 01011G16KT P6SM BKN040
     FM272100 04011G16KT P6SM SCT040
     FM280200 05007KT P6SM SCT035
     FM281100 05004KT P6SM FEW035=

USA.gov is the U.S. government's official web portal to all federal, state and local government web resources and services.